createdAt,value
2018-05-31T00:00:05.343Z,98785.58
2018-05-31T00:02:33.598Z,98773.84
2018-05-31T00:05:01.900Z,98777.25
2018-05-31T00:07:30.151Z,98755.91
2018-05-31T00:09:58.429Z,98773.60
2018-05-31T00:12:26.718Z,98777.59
2018-05-31T00:14:54.994Z,98787.33
2018-05-31T00:17:29.568Z,98796.77
2018-05-31T00:19:57.906Z,98793.83
2018-05-31T00:22:26.170Z,98777.47
2018-05-31T00:24:54.450Z,98783.52
2018-05-31T00:27:22.802Z,98769.30
2018-05-31T00:29:51.042Z,98760.95
2018-05-31T00:32:19.317Z,98744.05
2018-05-31T00:34:49.648Z,98731.53
2018-05-31T00:37:21.922Z,98731.57
2018-05-31T00:39:54.515Z,98745.55
2018-05-31T00:42:26.422Z,98753.30
2018-05-31T00:44:57.640Z,98753.80
2018-05-31T00:47:26.383Z,98758.89
2018-05-31T00:49:54.660Z,98765.55
2018-05-31T00:52:22.954Z,98745.05
2018-05-31T00:54:51.241Z,98751.95
2018-05-31T00:57:19.672Z,98756.99
2018-05-31T00:59:47.968Z,98766.58
2018-05-31T01:02:16.266Z,98793.25
2018-05-31T01:04:44.549Z,98804.74
2018-05-31T01:07:12.843Z,98811.80
2018-05-31T01:09:42.238Z,98859.16
2018-05-31T01:12:11.032Z,98833.76
2018-05-31T01:14:41.134Z,98788.27
2018-05-31T01:17:09.659Z,98764.39
2018-05-31T01:19:38.293Z,98777.71
2018-05-31T01:22:06.567Z,98799.50
2018-05-31T01:24:34.847Z,98778.05
2018-05-31T01:27:03.105Z,98765.73
2018-05-31T01:29:31.385Z,98779.47
2018-05-31T01:32:01.480Z,98775.78
2018-05-31T01:34:30.481Z,98779.84
2018-05-31T01:37:03.728Z,98776.00
2018-05-31T01:39:34.407Z,98768.84
2018-05-31T01:42:02.691Z,98765.13
2018-05-31T01:44:31.266Z,98766.16
2018-05-31T01:46:59.770Z,98757.06
2018-05-31T01:49:28.256Z,98752.55
2018-05-31T01:51:59.042Z,98741.78
2018-05-31T01:54:27.386Z,98737.09
2018-05-31T01:56:55.647Z,98735.91
2018-05-31T01:59:24.233Z,98736.30
2018-05-31T02:01:52.543Z,98736.46
2018-05-31T02:04:20.810Z,98731.88
2018-05-31T02:06:49.127Z,98728.59
2018-05-31T02:09:17.400Z,98727.34
2018-05-31T02:11:45.693Z,98725.97
2018-05-31T02:14:13.964Z,98723.80
2018-05-31T02:16:42.471Z,98719.05
2018-05-31T02:19:10.740Z,98710.92
2018-05-31T02:21:39.029Z,98698.88
2018-05-31T02:24:07.293Z,98690.13
2018-05-31T02:26:35.574Z,98691.13
2018-05-31T02:29:03.850Z,98698.02
2018-05-31T02:31:32.138Z,98718.14
2018-05-31T02:34:00.398Z,98737.98
2018-05-31T02:36:28.682Z,98752.20
2018-05-31T02:38:57.166Z,98725.34
2018-05-31T02:41:25.435Z,98703.83
2018-05-31T02:43:54.259Z,98704.05
2018-05-31T02:46:22.518Z,98704.44
2018-05-31T02:48:50.798Z,98702.08
2018-05-31T02:51:19.065Z,98705.23
2018-05-31T02:53:47.350Z,98708.38
2018-05-31T02:56:15.618Z,98719.75
2018-05-31T02:58:45.566Z,98716.25
2018-05-31T03:01:13.815Z,98701.36
2018-05-31T03:03:42.088Z,98699.77
2018-05-31T03:06:10.354Z,98691.03
2018-05-31T03:08:38.635Z,98687.77
2018-05-31T03:11:06.886Z,98672.16
2018-05-31T03:13:35.168Z,98675.95
2018-05-31T03:16:03.438Z,98674.16
2018-05-31T03:18:31.743Z,98663.24
2018-05-31T03:21:00.026Z,98652.67
2018-05-31T03:23:28.290Z,98652.95
2018-05-31T03:25:56.566Z,98645.77
2018-05-31T03:28:24.830Z,98641.55
2018-05-31T03:30:53.631Z,98628.98
2018-05-31T03:33:21.921Z,98636.48
2018-05-31T03:35:51.512Z,98634.23
2018-05-31T03:38:19.746Z,98635.02
2018-05-31T03:40:48.048Z,98641.55
2018-05-31T03:43:16.311Z,98650.07
2018-05-31T03:45:44.608Z,98650.03
2018-05-31T03:48:12.872Z,98655.97
2018-05-31T03:50:41.157Z,98650.75
2018-05-31T03:53:09.425Z,98647.75
2018-05-31T03:55:37.699Z,98643.94
2018-05-31T03:58:05.976Z,98646.76
2018-05-31T04:00:34.261Z,98651.84
2018-05-31T04:03:02.538Z,98650.89
2018-05-31T04:05:31.686Z,98642.94
2018-05-31T04:07:59.959Z,98643.91
2018-05-31T04:10:28.234Z,98638.67
2018-05-31T04:12:56.589Z,98637.02
2018-05-31T04:15:24.810Z,98636.43
2018-05-31T04:17:53.086Z,98629.33
2018-05-31T04:20:21.357Z,98624.61
2018-05-31T04:22:49.661Z,98618.05
2018-05-31T04:25:17.933Z,98618.33
2018-05-31T04:27:46.202Z,98629.82
2018-05-31T04:30:14.478Z,98634.12
2018-05-31T04:32:42.761Z,98647.16
2018-05-31T04:35:11.026Z,98647.73
2018-05-31T04:37:39.334Z,98654.01
2018-05-31T04:40:10.071Z,98664.75
2018-05-31T04:42:39.876Z,98671.54
2018-05-31T04:45:08.145Z,98678.04
2018-05-31T04:47:36.742Z,98672.30
2018-05-31T04:50:05.111Z,98670.48
2018-05-31T04:52:33.720Z,98670.33
2018-05-31T04:55:02.015Z,98669.99
2018-05-31T04:57:30.281Z,98667.52
2018-05-31T04:59:58.562Z,98671.72
2018-05-31T05:02:26.834Z,98672.80
2018-05-31T05:04:55.135Z,98673.75
2018-05-31T05:07:23.389Z,98676.73
2018-05-31T05:09:51.673Z,98668.42
2018-05-31T05:12:20.454Z,98682.11
2018-05-31T05:14:48.733Z,98687.70
2018-05-31T05:17:17.003Z,98688.61
2018-05-31T05:19:45.308Z,98690.01
2018-05-31T05:22:15.169Z,98695.48
2018-05-31T05:24:43.474Z,98697.97
2018-05-31T05:27:11.883Z,98697.81
2018-05-31T05:29:40.183Z,98706.66
2018-05-31T05:32:09.155Z,98709.45
2018-05-31T05:34:38.914Z,98707.20
2018-05-31T05:37:07.173Z,98713.50
2018-05-31T05:39:35.466Z,98712.02
2018-05-31T05:42:09.833Z,98702.75
2018-05-31T05:44:38.867Z,98725.02
2018-05-31T05:47:08.049Z,98723.68
2018-05-31T05:49:36.346Z,98724.55
2018-05-31T05:52:05.196Z,98729.63
2018-05-31T05:54:34.187Z,98732.88
2018-05-31T05:57:02.570Z,98733.02
2018-05-31T05:59:30.803Z,98737.42
2018-05-31T06:01:59.114Z,98737.71
2018-05-31T06:04:27.414Z,98742.21
2018-05-31T06:06:56.482Z,98747.58
2018-05-31T06:09:31.875Z,98750.83
2018-05-31T06:12:00.180Z,98754.09
2018-05-31T06:14:28.441Z,98748.42
2018-05-31T06:16:56.786Z,98750.22
2018-05-31T06:19:25.046Z,98755.36
2018-05-31T06:21:53.334Z,98763.73
2018-05-31T06:24:21.606Z,98761.02
2018-05-31T06:26:49.875Z,98767.18
2018-05-31T06:29:18.133Z,98767.45
2018-05-31T06:31:46.420Z,98776.98
2018-05-31T06:34:14.790Z,98777.03
2018-05-31T06:36:44.294Z,98775.33
2018-05-31T06:39:12.578Z,98776.22
2018-05-31T06:41:40.847Z,98780.56
2018-05-31T06:44:09.127Z,98783.78
2018-05-31T06:46:37.402Z,98788.05
2018-05-31T06:49:05.706Z,98772.45
2018-05-31T06:51:33.971Z,98794.49
2018-05-31T06:54:02.253Z,98799.52
2018-05-31T06:56:30.519Z,98794.84
2018-05-31T06:59:00.238Z,98790.19
2018-05-31T07:01:28.490Z,98787.94
2018-05-31T07:03:56.774Z,98787.76
2018-05-31T07:06:25.048Z,98792.29
2018-05-31T07:08:53.340Z,98797.69
2018-05-31T07:11:21.599Z,98795.80
2018-05-31T07:13:51.759Z,98795.47
2018-05-31T07:16:20.723Z,98803.06
2018-05-31T07:18:49.011Z,98799.21
2018-05-31T07:21:17.270Z,98798.53
2018-05-31T07:23:45.557Z,98790.14
2018-05-31T07:26:14.938Z,98805.61
2018-05-31T07:28:45.954Z,98809.50
2018-05-31T07:31:16.633Z,98806.21
2018-05-31T07:33:45.181Z,98807.00
2018-05-31T07:36:13.474Z,98810.96
2018-05-31T07:38:42.394Z,98809.44
2018-05-31T07:41:10.862Z,98818.28
2018-05-31T07:43:39.105Z,98822.11
2018-05-31T07:46:07.391Z,98828.01
2018-05-31T07:48:35.662Z,98831.73
2018-05-31T07:51:04.960Z,98844.19
2018-05-31T07:53:33.570Z,98840.81
2018-05-31T07:56:01.853Z,98831.14
2018-05-31T07:58:30.122Z,98845.73
2018-05-31T08:00:58.500Z,98839.10
2018-05-31T08:03:27.067Z,98840.09
2018-05-31T08:05:55.367Z,98845.78
2018-05-31T08:08:23.646Z,98842.30
2018-05-31T08:10:51.992Z,98841.41
2018-05-31T08:13:20.293Z,98841.66
2018-05-31T08:15:48.552Z,98838.65
2018-05-31T08:18:16.837Z,98853.52
2018-05-31T08:20:45.128Z,98854.94
2018-05-31T08:23:13.403Z,98854.06
2018-05-31T08:25:41.754Z,98859.73
2018-05-31T08:28:10.053Z,98842.04
2018-05-31T08:30:38.308Z,98861.81
2018-05-31T08:33:07.243Z,98858.03
2018-05-31T08:35:35.515Z,98856.45
2018-05-31T08:38:03.815Z,98855.06
2018-05-31T08:40:32.090Z,98859.05
2018-05-31T08:43:01.161Z,98863.50
2018-05-31T08:45:29.505Z,98859.17
2018-05-31T08:47:57.758Z,98851.52
2018-05-31T08:50:26.072Z,98855.77
2018-05-31T08:52:54.331Z,98856.05
2018-05-31T08:55:23.874Z,98860.28
2018-05-31T08:57:52.888Z,98857.44
2018-05-31T09:00:22.169Z,98867.87
2018-05-31T09:02:50.421Z,98865.77
2018-05-31T09:05:18.705Z,98872.31
2018-05-31T09:07:46.972Z,98869.42
2018-05-31T09:10:15.257Z,98868.86
2018-05-31T09:12:43.529Z,98863.38
2018-05-31T09:15:11.901Z,98864.07
2018-05-31T09:17:40.142Z,98864.72
2018-05-31T09:20:08.403Z,98861.26
2018-05-31T09:22:37.049Z,98855.33
2018-05-31T09:25:05.310Z,98860.47
2018-05-31T09:27:34.485Z,98851.09
2018-05-31T09:30:02.742Z,98852.20
2018-05-31T09:32:31.041Z,98845.08
2018-05-31T09:34:59.397Z,98849.05
2018-05-31T09:37:27.670Z,98850.66
2018-05-31T09:39:55.965Z,98849.81
2018-05-31T09:42:24.259Z,98852.23
2018-05-31T09:44:52.565Z,98851.38
2018-05-31T09:47:20.880Z,98843.44
2018-05-31T09:49:49.252Z,98843.05
2018-05-31T09:52:18.942Z,98854.58
2018-05-31T09:54:48.158Z,98861.28
2018-05-31T09:57:16.464Z,98853.41
2018-05-31T09:59:44.728Z,98854.57
2018-05-31T10:02:13.017Z,98848.98
2018-05-31T10:04:41.279Z,98852.76
2018-05-31T10:07:09.577Z,98853.13
2018-05-31T10:09:37.821Z,98851.84
2018-05-31T10:12:06.118Z,98847.45
2018-05-31T10:14:35.517Z,98842.14
2018-05-31T10:17:03.788Z,98843.26
2018-05-31T10:19:39.917Z,98844.43
2018-05-31T10:22:08.177Z,98838.76
2018-05-31T10:24:36.469Z,98838.67
2018-05-31T10:27:04.795Z,98836.03
2018-05-31T10:29:33.129Z,98832.88
2018-05-31T10:32:01.386Z,98826.86
2018-05-31T10:34:29.995Z,98827.50
2018-05-31T10:36:58.278Z,98826.70
2018-05-31T10:39:26.959Z,98828.60
2018-05-31T10:41:56.642Z,98818.45
2018-05-31T10:44:24.978Z,98826.78
2018-05-31T10:46:53.254Z,98820.34
2018-05-31T10:49:21.594Z,98819.89
2018-05-31T10:51:49.871Z,98820.58
2018-05-31T10:54:18.137Z,98814.67
2018-05-31T10:56:46.427Z,98818.59
2018-05-31T10:59:14.708Z,98804.84
2018-05-31T11:01:43.110Z,98807.53
2018-05-31T11:04:11.517Z,98801.93
2018-05-31T11:06:39.779Z,98796.14
2018-05-31T11:09:08.050Z,98801.48
2018-05-31T11:11:36.350Z,98802.93
2018-05-31T11:14:05.581Z,98796.14
2018-05-31T11:16:33.869Z,98805.73
2018-05-31T11:19:02.177Z,98805.81
2018-05-31T11:21:30.452Z,98799.27
2018-05-31T11:23:58.746Z,98801.45
2018-05-31T11:26:27.043Z,98800.74
2018-05-31T11:28:55.389Z,98798.73
2018-05-31T11:31:23.802Z,98803.36
2018-05-31T11:33:52.065Z,98802.50
2018-05-31T11:36:20.412Z,98799.21
2018-05-31T11:38:49.139Z,98805.98
2018-05-31T11:41:17.395Z,98788.63
2018-05-31T11:43:45.708Z,98799.20
2018-05-31T11:46:14.001Z,98802.95
2018-05-31T11:48:42.313Z,98801.61
2018-05-31T11:51:10.566Z,98797.42
2018-05-31T11:53:38.860Z,98801.30
2018-05-31T11:56:07.129Z,98800.65
2018-05-31T11:58:36.662Z,98799.63
2018-05-31T12:01:06.460Z,98793.53
2018-05-31T12:03:34.772Z,98792.08
2018-05-31T12:06:03.052Z,98783.89
2018-05-31T12:08:31.358Z,98781.91
2018-05-31T12:10:59.642Z,98774.23
2018-05-31T12:13:28.270Z,98774.42
2018-05-31T12:15:56.569Z,98775.70
2018-05-31T12:18:25.210Z,98775.52
2018-05-31T12:20:53.477Z,98770.53
2018-05-31T12:23:22.781Z,98770.40
2018-05-31T12:25:51.103Z,98783.07
2018-05-31T12:28:21.079Z,98773.94
2018-05-31T12:30:49.360Z,98769.91
2018-05-31T12:33:17.615Z,98768.72
2018-05-31T12:35:45.894Z,98756.28
2018-05-31T12:38:14.192Z,98754.09
2018-05-31T12:40:42.466Z,98758.00
2018-05-31T12:43:10.739Z,98764.17
2018-05-31T12:45:39.035Z,98764.13
2018-05-31T12:48:07.281Z,98766.66
2018-05-31T12:50:35.572Z,98765.17
2018-05-31T12:53:05.240Z,98763.25
2018-05-31T12:55:33.559Z,98757.25
2018-05-31T12:58:01.815Z,98761.13
2018-05-31T13:00:30.101Z,98756.30
2018-05-31T13:02:58.373Z,98753.55
2018-05-31T13:05:26.732Z,98751.48
2018-05-31T13:07:54.987Z,98749.11
2018-05-31T13:10:23.262Z,98739.97
2018-05-31T13:12:51.825Z,98747.77
2018-05-31T13:15:21.455Z,98747.95
2018-05-31T13:17:49.788Z,98744.24
2018-05-31T13:20:19.660Z,98734.55
2018-05-31T13:22:47.959Z,98737.96
2018-05-31T13:25:16.249Z,98737.80
2018-05-31T13:27:44.510Z,98733.91
2018-05-31T13:30:13.144Z,98734.70
2018-05-31T13:32:42.083Z,98736.67
2018-05-31T13:35:10.351Z,98738.41
2018-05-31T13:37:38.647Z,98721.67
2018-05-31T13:40:06.932Z,98736.27
2018-05-31T13:42:35.219Z,98740.12
2018-05-31T13:45:04.398Z,98742.61
2018-05-31T13:47:34.274Z,98748.45
2018-05-31T13:50:02.555Z,98737.58
2018-05-31T13:52:30.848Z,98734.23
2018-05-31T13:54:59.099Z,98734.20
2018-05-31T13:57:27.458Z,98740.02
2018-05-31T13:59:55.705Z,98740.56
2018-05-31T14:02:23.992Z,98736.77
2018-05-31T14:04:53.821Z,98735.20
2018-05-31T14:07:22.099Z,98741.70
2018-05-31T14:09:50.387Z,98727.81
2018-05-31T14:12:18.641Z,98731.11
2018-05-31T14:14:46.957Z,98725.89
2018-05-31T14:17:15.239Z,98723.22
2018-05-31T14:19:43.857Z,98717.28
2018-05-31T14:22:12.146Z,98710.34
2018-05-31T14:24:40.441Z,98708.70
2018-05-31T14:27:08.699Z,98704.30
2018-05-31T14:29:36.983Z,98695.12
2018-05-31T14:32:05.365Z,98690.53
2018-05-31T14:34:33.606Z,98700.33
2018-05-31T14:37:01.901Z,98701.80
2018-05-31T14:39:30.170Z,98694.53
2018-05-31T14:41:58.478Z,98696.83
2018-05-31T14:44:27.734Z,98714.33
2018-05-31T14:46:58.512Z,98702.39
2018-05-31T14:49:29.476Z,98697.51
2018-05-31T14:51:57.785Z,98692.41
2018-05-31T14:54:26.088Z,98707.39
2018-05-31T14:56:55.483Z,98711.34
2018-05-31T14:59:23.739Z,98713.81
2018-05-31T15:01:52.130Z,98718.30
2018-05-31T15:04:21.235Z,98718.92
2018-05-31T15:06:49.518Z,98719.45
2018-05-31T15:09:17.781Z,98718.45
2018-05-31T15:11:46.090Z,98710.34
2018-05-31T15:14:14.377Z,98707.67
2018-05-31T15:16:42.716Z,98701.47
2018-05-31T15:19:11.036Z,98708.73
2018-05-31T15:21:42.025Z,98708.23
2018-05-31T15:24:11.836Z,98703.46
2018-05-31T15:26:41.083Z,98707.67
2018-05-31T15:29:10.055Z,98698.59
2018-05-31T15:31:39.363Z,98693.02
2018-05-31T15:34:07.954Z,98686.98
2018-05-31T15:36:36.230Z,98689.81
2018-05-31T15:39:05.838Z,98680.05
2018-05-31T15:41:34.095Z,98686.86
2018-05-31T15:44:02.410Z,98672.28
2018-05-31T15:46:30.709Z,98676.85
2018-05-31T15:48:58.999Z,98676.46
2018-05-31T15:51:28.042Z,98582.41
2018-05-31T15:53:56.980Z,98668.28
2018-05-31T15:56:25.254Z,98667.17
2018-05-31T15:58:53.537Z,98660.88
2018-05-31T16:01:21.866Z,98650.91
2018-05-31T16:03:50.700Z,98649.41
2018-05-31T16:06:21.736Z,98645.92
2018-05-31T16:08:50.034Z,98649.82
2018-05-31T16:11:19.533Z,98649.30
2018-05-31T16:13:48.694Z,98650.67
2018-05-31T16:16:16.940Z,98655.95
2018-05-31T16:18:45.991Z,98656.63
2018-05-31T16:21:14.248Z,98648.59
2018-05-31T16:23:42.655Z,98655.08
2018-05-31T16:26:10.990Z,98659.56
2018-05-31T16:28:40.602Z,98663.45
2018-05-31T16:31:08.943Z,98666.05
2018-05-31T16:33:37.226Z,98659.62
2018-05-31T16:36:05.585Z,98661.41
2018-05-31T16:38:35.095Z,98662.12
2018-05-31T16:41:04.741Z,98661.67
2018-05-31T16:43:32.990Z,98664.54
2018-05-31T16:46:01.274Z,98664.91
2018-05-31T16:48:29.574Z,98664.98
2018-05-31T16:50:57.898Z,98669.25
2018-05-31T16:53:26.186Z,98667.94
2018-05-31T16:55:54.491Z,98663.77
2018-05-31T16:58:22.761Z,98665.09
2018-05-31T17:00:51.054Z,98652.48
2018-05-31T17:03:19.315Z,98655.69
2018-05-31T17:05:47.571Z,98651.90
2018-05-31T17:08:16.581Z,98644.63
2018-05-31T17:10:44.859Z,98636.63
2018-05-31T17:13:13.130Z,98630.64
2018-05-31T17:15:41.483Z,98630.92
2018-05-31T17:18:09.758Z,98625.94
2018-05-31T17:20:38.015Z,98619.89
2018-05-31T17:23:06.326Z,98628.81
2018-05-31T17:25:34.606Z,98625.44
2018-05-31T17:28:03.035Z,98629.71
2018-05-31T17:30:31.502Z,98632.11
2018-05-31T17:33:02.999Z,98635.36
2018-05-31T17:35:31.271Z,98629.17
2018-05-31T17:37:59.606Z,98626.24
2018-05-31T17:40:30.074Z,98617.30
2018-05-31T17:42:58.706Z,98611.31
2018-05-31T17:45:28.177Z,98614.63
2018-05-31T17:47:56.483Z,98618.48
2018-05-31T17:50:24.794Z,98614.20
2018-05-31T17:52:54.456Z,98608.34
2018-05-31T17:55:22.839Z,98606.42
2018-05-31T17:57:51.056Z,98610.55
2018-05-31T18:00:19.333Z,98612.33
2018-05-31T18:02:47.607Z,98615.61
2018-05-31T18:05:15.921Z,98618.48
2018-05-31T18:07:50.004Z,98626.47
2018-05-31T18:10:18.321Z,98612.17
2018-05-31T18:12:46.594Z,98636.80
2018-05-31T18:15:14.992Z,98644.66
2018-05-31T18:17:43.294Z,98643.73
2018-05-31T18:20:11.632Z,98643.44
2018-05-31T18:22:39.957Z,98646.05
2018-05-31T18:25:08.307Z,98659.47
2018-05-31T18:27:37.419Z,98664.87
2018-05-31T18:30:05.710Z,98671.08
2018-05-31T18:32:34.084Z,98668.80
2018-05-31T18:35:03.383Z,98669.00
2018-05-31T18:37:32.504Z,98674.61
2018-05-31T18:40:01.838Z,98683.97
2018-05-31T18:42:30.539Z,98684.34
2018-05-31T18:45:00.003Z,98688.63
2018-05-31T18:47:29.572Z,98685.69
2018-05-31T18:49:57.951Z,98693.69
2018-05-31T18:52:26.871Z,98689.41
2018-05-31T18:54:56.196Z,98692.31
2018-05-31T18:57:26.604Z,98697.34
2018-05-31T18:59:55.254Z,98698.89
2018-05-31T19:02:23.540Z,98704.74
2018-05-31T19:04:51.861Z,98707.47
2018-05-31T19:07:21.020Z,98715.64
2018-05-31T19:09:49.311Z,98709.81
2018-05-31T19:12:17.598Z,98715.25
2018-05-31T19:14:49.982Z,98732.12
2018-05-31T19:17:18.475Z,98733.95
2018-05-31T19:19:52.771Z,98728.27
2018-05-31T19:22:21.083Z,98727.87
2018-05-31T19:24:55.203Z,98726.91
2018-05-31T19:27:27.389Z,98743.89
2018-05-31T19:30:02.655Z,98750.69
2018-05-31T19:32:31.067Z,98749.95
2018-05-31T19:34:59.487Z,98738.63
2018-05-31T19:37:27.819Z,98737.64
2018-05-31T19:39:56.142Z,98743.18
2018-05-31T19:42:31.050Z,98734.81
2018-05-31T19:44:59.381Z,98733.41
2018-05-31T19:47:27.707Z,98730.77
2018-05-31T19:49:56.004Z,98733.31
2018-05-31T19:52:30.286Z,98744.75
2018-05-31T19:54:58.522Z,98739.41
2018-05-31T19:57:27.166Z,98734.66
2018-05-31T20:00:00.975Z,98740.81
2018-05-31T20:02:34.828Z,98733.52
2018-05-31T20:05:05.335Z,98736.57
2018-05-31T20:07:34.783Z,98732.81
2018-05-31T20:10:03.023Z,98728.02
2018-05-31T20:12:31.319Z,98724.09
2018-05-31T20:14:59.565Z,98718.28
2018-05-31T20:17:28.930Z,98713.27
2018-05-31T20:19:57.368Z,98700.65
2018-05-31T20:22:25.644Z,98701.20
2018-05-31T20:24:53.975Z,98697.48
2018-05-31T20:27:22.273Z,98695.77
2018-05-31T20:29:50.521Z,98699.78
2018-05-31T20:32:18.794Z,98707.52
2018-05-31T20:34:47.295Z,98704.42
2018-05-31T20:37:15.559Z,98707.38
2018-05-31T20:39:44.170Z,98701.81
2018-05-31T20:42:12.440Z,98691.17
2018-05-31T20:44:40.733Z,98692.63
2018-05-31T20:47:08.991Z,98695.93
2018-05-31T20:49:37.303Z,98689.13
2018-05-31T20:52:05.928Z,98696.35
2018-05-31T20:54:34.241Z,98705.33
2018-05-31T20:57:02.513Z,98702.92
2018-05-31T20:59:30.827Z,98705.16
2018-05-31T21:01:59.115Z,98700.05
2018-05-31T21:04:27.442Z,98696.64
2018-05-31T21:06:55.705Z,98696.77
2018-05-31T21:09:23.966Z,98700.58
2018-05-31T21:11:52.338Z,98696.98
2018-05-31T21:14:21.166Z,98693.22
2018-05-31T21:16:49.455Z,98691.21
2018-05-31T21:19:17.716Z,98686.53
2018-05-31T21:21:46.019Z,98682.16
2018-05-31T21:24:14.311Z,98677.47
2018-05-31T21:26:42.619Z,98677.97
2018-05-31T21:29:12.122Z,98685.45
2018-05-31T21:31:40.614Z,98681.95
2018-05-31T21:34:12.690Z,98676.67
2018-05-31T21:36:40.966Z,98670.81
2018-05-31T21:39:09.770Z,98673.97
2018-05-31T21:41:38.053Z,98675.45
2018-05-31T21:44:06.343Z,98670.88
2018-05-31T21:46:35.678Z,98676.38
2018-05-31T21:49:06.786Z,98685.14
2018-05-31T21:51:36.462Z,98690.31
2018-05-31T21:54:04.956Z,98685.28
2018-05-31T21:56:33.240Z,98690.54
2018-05-31T21:59:02.927Z,98685.66
2018-05-31T22:01:31.827Z,98665.26
2018-05-31T22:04:00.104Z,98649.02
2018-05-31T22:06:28.367Z,98648.05
2018-05-31T22:08:56.657Z,98655.57
2018-05-31T22:11:24.922Z,98655.36
2018-05-31T22:13:53.218Z,98669.86
2018-05-31T22:16:24.264Z,98673.28
2018-05-31T22:18:52.558Z,98683.91
2018-05-31T22:21:20.875Z,98701.59
2018-05-31T22:23:49.175Z,98712.75
2018-05-31T22:26:17.421Z,98736.60
2018-05-31T22:28:45.721Z,98757.34
2018-05-31T22:31:13.981Z,98766.05
2018-05-31T22:33:42.674Z,98760.78
2018-05-31T22:36:10.942Z,98757.16
2018-05-31T22:38:39.238Z,98798.65
2018-05-31T22:41:07.531Z,98799.20
2018-05-31T22:43:35.787Z,98791.44
2018-05-31T22:46:04.426Z,98802.09
2018-05-31T22:48:32.690Z,98843.63
2018-05-31T22:51:00.951Z,98866.24
2018-05-31T22:53:30.587Z,98857.23
2018-05-31T22:55:58.878Z,98850.90
2018-05-31T22:58:27.162Z,98880.54
2018-05-31T23:00:55.486Z,98900.97
2018-05-31T23:03:23.749Z,98901.45
2018-05-31T23:05:52.055Z,98872.94
2018-05-31T23:08:20.330Z,98875.73
2018-05-31T23:10:48.720Z,98889.28
2018-05-31T23:13:16.979Z,98920.63
2018-05-31T23:15:45.276Z,98942.05
2018-05-31T23:18:13.541Z,98932.13
2018-05-31T23:20:41.822Z,98912.56
2018-05-31T23:23:10.092Z,98902.55
2018-05-31T23:25:38.373Z,98895.38
2018-05-31T23:28:06.636Z,98910.35
2018-05-31T23:30:34.918Z,98921.98
2018-05-31T23:33:04.591Z,98919.84
2018-05-31T23:35:32.954Z,98912.12
2018-05-31T23:38:01.220Z,98899.79
2018-05-31T23:40:29.506Z,98898.88
2018-05-31T23:42:57.781Z,98875.42
2018-05-31T23:45:26.050Z,98863.45
2018-05-31T23:47:54.350Z,98847.47
2018-05-31T23:50:22.623Z,98854.23
2018-05-31T23:52:50.933Z,98869.75
2018-05-31T23:55:19.307Z,98891.02
2018-05-31T23:57:47.686Z,98904.23
